Alto, Michigan
Current Conditions -  °F | °C
As of 5:53 PM on Sunday 21 Dec 2014 (Local Time) from KGRR Reporting Station
Broken Clouds Broken Clouds  
Wind Chill: -5°   Ceiling: 23000
Heat Index: -1°   Visibility: 8mi
Dew Point: -4°   Wind: 8mph
Humidity: 76%   Direction: 140°SE
Pressure: 30.15"   Gusts: NA
Location:  42.86°N, 85.38°W
Report Text: KGRR 212253Z 14007KT 8SM FEW055 SCT120 BKN230 M01/M04 A3015 RMK AO2 SLP219 T10061044
Loading
Personal Weather Stations






























Interactive Weather Map New forecast layout! Learn more

10-Day Weather Forecast

Advertisements
Track Severe Weather on mobile